PTLCS SBMO-SBSL
Flight info
| Callsign | PTLCS |
|---|---|
| Flight time | 3h 17m |
| Altitude | 16000 |
| Route | REGED DCT TNA UZ20 SLI |
| Aircraft | BT36/L-BDFGLORY/S |
Departure
| Time | 2026-04-24 19:21 |
|---|---|
| Airport | Zumbi dos Palmares International Airport (SBMO) |
Arrival
| Time | 2026-04-24 22:38 |
|---|---|
| Airport | Marechal Cunha Machado International Airport (SBSL) |
| Time | Latitude | Longitude | Altitude | Speed | Heading |
|---|---|---|---|---|---|
| 2026-04-24 19:04 | -9.51091 | -35.80282 | 395 ft | 0 kts | 100° |
| 2026-04-24 19:05 | -9.51091 | -35.80283 | 395 ft | 0 kts | 99° |
| 2026-04-24 19:09 | -9.51091 | -35.80284 | 395 ft | 0 kts | 100° |
| 2026-04-24 19:11 | -9.51091 | -35.80283 | 395 ft | 2 kts | 106° |
| 2026-04-24 19:11 | -9.51063 | -35.80259 | 395 ft | 11 kts | 27° |
| 2026-04-24 19:11 | -9.51052 | -35.80218 | 395 ft | 1 kts | 107° |
| 2026-04-24 19:12 | -9.51063 | -35.80228 | 395 ft | 7 kts | 303° |
| 2026-04-24 19:12 | -9.51040 | -35.80285 | 395 ft | 11 kts | 282° |
| 2026-04-24 19:12 | -9.50995 | -35.80343 | 395 ft | 11 kts | 5° |
| 2026-04-24 19:12 | -9.50963 | -35.80338 | 395 ft | 0 kts | 13° |
| 2026-04-24 19:17 | -9.50964 | -35.80338 | 395 ft | 0 kts | 13° |
| 2026-04-24 19:19 | -9.50922 | -35.80321 | 395 ft | 13 kts | 8° |
| 2026-04-24 19:19 | -9.50868 | -35.80287 | 395 ft | 5 kts | 107° |
| 2026-04-24 19:20 | -9.50896 | -35.80186 | 396 ft | 40 kts | 98° |
| 2026-04-24 19:20 | -9.50976 | -35.79684 | 435 ft | 94 kts | 104° |
| 2026-04-24 19:20 | -9.51131 | -35.79002 | 694 ft | 102 kts | 101° |
| 2026-04-24 19:20 | -9.51265 | -35.78293 | 902 ft | 103 kts | 106° |
| 2026-04-24 19:21 | -9.51409 | -35.77560 | 1139 ft | 112 kts | 104° |
| 2026-04-24 19:21 | -9.51570 | -35.76733 | 1386 ft | 125 kts | 105° |
| 2026-04-24 19:21 | -9.51739 | -35.75858 | 1743 ft | 126 kts | 105° |
| 2026-04-24 19:21 | -9.51875 | -35.75006 | 2146 ft | 121 kts | 91° |
| 2026-04-24 19:22 | -9.51702 | -35.74469 | 2414 ft | 124 kts | 59° |
| 2026-04-24 19:22 | -9.50697 | -35.73938 | 2953 ft | 129 kts | 0° |
| 2026-04-24 19:22 | -9.49869 | -35.74305 | 3280 ft | 135 kts | 322° |
| 2026-04-24 19:22 | -9.49110 | -35.74890 | 3570 ft | 139 kts | 324° |
| 2026-04-24 19:23 | -9.48331 | -35.75483 | 3864 ft | 141 kts | 323° |
| 2026-04-24 19:23 | -9.47544 | -35.76090 | 4162 ft | 143 kts | 324° |
| 2026-04-24 19:23 | -9.46747 | -35.76704 | 4461 ft | 145 kts | 324° |
| 2026-04-24 19:23 | -9.45941 | -35.77323 | 4764 ft | 146 kts | 324° |
| 2026-04-24 19:24 | -9.45127 | -35.77948 | 5048 ft | 148 kts | 324° |
| 2026-04-24 19:24 | -9.44298 | -35.78583 | 5337 ft | 150 kts | 324° |
| 2026-04-24 19:24 | -9.43461 | -35.79225 | 5640 ft | 151 kts | 323° |
| 2026-04-24 19:24 | -9.42624 | -35.79868 | 5957 ft | 151 kts | 323° |
| 2026-04-24 19:25 | -9.41787 | -35.80511 | 6277 ft | 151 kts | 323° |
| 2026-04-24 19:25 | -9.40946 | -35.81155 | 6581 ft | 152 kts | 323° |
| 2026-04-24 19:25 | -9.40106 | -35.81799 | 6881 ft | 152 kts | 323° |
| 2026-04-24 19:25 | -9.39263 | -35.82446 | 7185 ft | 152 kts | 323° |
| 2026-04-24 19:26 | -9.38417 | -35.83094 | 7490 ft | 153 kts | 323° |
| 2026-04-24 19:26 | -9.37568 | -35.83745 | 7805 ft | 154 kts | 323° |
| 2026-04-24 19:26 | -9.36715 | -35.84399 | 8119 ft | 154 kts | 323° |
| 2026-04-24 19:26 | -9.35859 | -35.85056 | 8437 ft | 155 kts | 324° |
| 2026-04-24 19:27 | -9.34999 | -35.85715 | 8752 ft | 155 kts | 324° |
| 2026-04-24 19:27 | -9.34137 | -35.86375 | 9076 ft | 155 kts | 324° |
| 2026-04-24 19:27 | -9.33275 | -35.87037 | 9401 ft | 156 kts | 324° |
| 2026-04-24 19:27 | -9.32410 | -35.87699 | 9729 ft | 156 kts | 324° |
| 2026-04-24 19:28 | -9.31556 | -35.88354 | 10034 ft | 156 kts | 324° |
| 2026-04-24 19:28 | -9.30691 | -35.89016 | 10329 ft | 156 kts | 324° |
| 2026-04-24 19:28 | -9.29828 | -35.89679 | 10629 ft | 156 kts | 324° |
| 2026-04-24 19:28 | -9.28964 | -35.90341 | 10933 ft | 156 kts | 324° |
| 2026-04-24 19:29 | -9.27234 | -35.91666 | 11543 ft | 156 kts | 325° |
| 2026-04-24 19:29 | -9.26367 | -35.92330 | 11854 ft | 156 kts | 324° |
| 2026-04-24 19:29 | -9.25501 | -35.92995 | 12144 ft | 157 kts | 325° |
| 2026-04-24 19:30 | -9.24621 | -35.93667 | 12411 ft | 159 kts | 324° |
| 2026-04-24 19:30 | -9.23735 | -35.94345 | 12686 ft | 161 kts | 325° |
| 2026-04-24 19:30 | -9.22842 | -35.95029 | 12965 ft | 161 kts | 325° |
| 2026-04-24 19:30 | -9.21947 | -35.95715 | 13246 ft | 162 kts | 325° |
| 2026-04-24 19:31 | -9.21047 | -35.96405 | 13527 ft | 163 kts | 326° |
| 2026-04-24 19:31 | -9.20145 | -35.97095 | 13809 ft | 162 kts | 325° |
| 2026-04-24 19:31 | -9.19247 | -35.97783 | 14055 ft | 162 kts | 325° |
| 2026-04-24 19:31 | -9.18346 | -35.98472 | 14301 ft | 163 kts | 326° |
| 2026-04-24 19:32 | -9.17441 | -35.99167 | 14549 ft | 164 kts | 324° |
| 2026-04-24 19:32 | -9.16535 | -35.99860 | 14799 ft | 163 kts | 325° |
| 2026-04-24 19:32 | -9.15629 | -36.00554 | 15050 ft | 164 kts | 326° |
| 2026-04-24 19:32 | -9.14716 | -36.01252 | 15303 ft | 165 kts | 326° |
| 2026-04-24 19:33 | -9.13801 | -36.01952 | 15567 ft | 165 kts | 325° |
| 2026-04-24 19:33 | -9.12887 | -36.02652 | 15826 ft | 165 kts | 326° |
| 2026-04-24 19:33 | -9.11951 | -36.03367 | 15959 ft | 175 kts | 324° |
| 2026-04-24 19:33 | -9.10940 | -36.04136 | 15970 ft | 188 kts | 325° |
| 2026-04-24 19:34 | -9.09869 | -36.04954 | 15974 ft | 197 kts | 324° |
| 2026-04-24 19:34 | -9.08771 | -36.05797 | 15975 ft | 200 kts | 325° |
| 2026-04-24 19:34 | -9.07655 | -36.06653 | 15969 ft | 202 kts | 324° |
| 2026-04-24 19:34 | -9.06537 | -36.07509 | 15973 ft | 202 kts | 325° |
| 2026-04-24 19:35 | -9.05418 | -36.08365 | 15974 ft | 202 kts | 325° |
| 2026-04-24 19:35 | -9.04295 | -36.09225 | 15974 ft | 203 kts | 325° |
| 2026-04-24 19:35 | -9.03167 | -36.10087 | 15971 ft | 203 kts | 324° |
| 2026-04-24 19:35 | -9.02045 | -36.10946 | 15975 ft | 202 kts | 325° |
| 2026-04-24 19:36 | -9.00925 | -36.11801 | 15978 ft | 202 kts | 325° |
| 2026-04-24 19:36 | -8.99806 | -36.12658 | 15974 ft | 201 kts | 324° |
| 2026-04-24 19:36 | -8.98690 | -36.13512 | 15977 ft | 200 kts | 324° |
| 2026-04-24 19:36 | -8.97576 | -36.14363 | 15971 ft | 200 kts | 324° |
| 2026-04-24 19:37 | -8.96461 | -36.15216 | 15975 ft | 201 kts | 324° |
| 2026-04-24 19:37 | -8.95345 | -36.16071 | 15977 ft | 201 kts | 324° |
| 2026-04-24 19:37 | -8.94406 | -36.17120 | 15974 ft | 203 kts | 300° |
| 2026-04-24 19:37 | -8.93711 | -36.18363 | 15973 ft | 203 kts | 300° |
| 2026-04-24 19:38 | -8.92999 | -36.19602 | 15977 ft | 204 kts | 300° |
| 2026-04-24 19:38 | -8.92287 | -36.20846 | 15980 ft | 204 kts | 300° |
| 2026-04-24 19:38 | -8.91578 | -36.22088 | 15978 ft | 204 kts | 300° |
| 2026-04-24 19:38 | -8.90870 | -36.23328 | 15979 ft | 204 kts | 300° |
| 2026-04-24 19:39 | -8.90161 | -36.24573 | 15977 ft | 205 kts | 300° |
| 2026-04-24 19:39 | -8.89447 | -36.25826 | 15980 ft | 206 kts | 300° |
| 2026-04-24 19:39 | -8.88730 | -36.27080 | 15980 ft | 206 kts | 300° |
| 2026-04-24 19:39 | -8.88011 | -36.28339 | 15976 ft | 207 kts | 300° |
| 2026-04-24 19:40 | -8.87296 | -36.29591 | 15983 ft | 205 kts | 300° |
| 2026-04-24 19:40 | -8.86587 | -36.30830 | 15986 ft | 203 kts | 300° |
| 2026-04-24 19:40 | -8.85881 | -36.32068 | 15985 ft | 203 kts | 300° |
| 2026-04-24 19:40 | -8.85178 | -36.33301 | 15987 ft | 202 kts | 300° |
| 2026-04-24 19:41 | -8.84473 | -36.34533 | 15982 ft | 204 kts | 300° |
| 2026-04-24 19:41 | -8.83764 | -36.35778 | 15983 ft | 204 kts | 300° |
| 2026-04-24 19:41 | -8.83050 | -36.37024 | 15977 ft | 206 kts | 300° |
| 2026-04-24 19:41 | -8.82332 | -36.38281 | 15982 ft | 207 kts | 300° |
| 2026-04-24 19:42 | -8.81615 | -36.39537 | 15977 ft | 205 kts | 300° |
| 2026-04-24 19:42 | -8.80912 | -36.40762 | 15980 ft | 205 kts | 300° |
| 2026-04-24 19:42 | -8.80201 | -36.42009 | 15980 ft | 205 kts | 300° |
| 2026-04-24 19:42 | -8.79491 | -36.43258 | 15984 ft | 204 kts | 300° |
| 2026-04-24 19:43 | -8.78779 | -36.44498 | 15984 ft | 204 kts | 300° |
| 2026-04-24 19:43 | -8.78072 | -36.45734 | 15987 ft | 203 kts | 300° |
| 2026-04-24 19:43 | -8.77367 | -36.46967 | 15983 ft | 202 kts | 300° |
| 2026-04-24 19:43 | -8.76665 | -36.48195 | 15979 ft | 201 kts | 300° |
| 2026-04-24 19:44 | -8.75964 | -36.49420 | 15984 ft | 201 kts | 300° |
| 2026-04-24 19:44 | -8.75265 | -36.50643 | 15981 ft | 201 kts | 300° |
| 2026-04-24 19:44 | -8.74565 | -36.51867 | 15983 ft | 201 kts | 300° |
| 2026-04-24 19:44 | -8.73863 | -36.53093 | 15980 ft | 202 kts | 300° |
| 2026-04-24 19:45 | -8.73156 | -36.54332 | 15980 ft | 205 kts | 300° |
| 2026-04-24 19:45 | -8.72442 | -36.55581 | 15976 ft | 205 kts | 300° |
| 2026-04-24 19:45 | -8.71727 | -36.56826 | 15978 ft | 205 kts | 300° |
| 2026-04-24 19:45 | -8.71011 | -36.58080 | 15970 ft | 207 kts | 300° |
| 2026-04-24 19:46 | -8.70292 | -36.59339 | 15979 ft | 206 kts | 300° |
| 2026-04-24 19:46 | -8.69573 | -36.60589 | 15979 ft | 206 kts | 300° |
| 2026-04-24 19:46 | -8.68859 | -36.61842 | 15977 ft | 205 kts | 300° |
| 2026-04-24 19:46 | -8.68146 | -36.63083 | 15983 ft | 203 kts | 300° |
| 2026-04-24 19:47 | -8.67438 | -36.64319 | 15978 ft | 204 kts | 300° |
| 2026-04-24 19:47 | -8.66730 | -36.65560 | 15975 ft | 203 kts | 300° |
| 2026-04-24 19:47 | -8.66021 | -36.66796 | 15976 ft | 203 kts | 300° |
| 2026-04-24 19:47 | -8.65309 | -36.68039 | 15974 ft | 205 kts | 300° |
| 2026-04-24 19:48 | -8.64592 | -36.69293 | 15973 ft | 207 kts | 300° |
| 2026-04-24 19:48 | -8.63870 | -36.70551 | 15973 ft | 207 kts | 300° |
| 2026-04-24 19:48 | -8.62419 | -36.73085 | 15970 ft | 209 kts | 300° |
| 2026-04-24 19:49 | -8.60966 | -36.75620 | 15973 ft | 207 kts | 300° |
| 2026-04-24 19:49 | -8.59527 | -36.78131 | 15969 ft | 207 kts | 300° |
| 2026-04-24 19:50 | -8.57374 | -36.81887 | 15969 ft | 206 kts | 300° |
| 2026-04-24 19:50 | -8.56659 | -36.83134 | 15971 ft | 204 kts | 300° |
| 2026-04-24 19:51 | -8.55252 | -36.85590 | 15963 ft | 203 kts | 300° |
| 2026-04-24 19:51 | -8.54545 | -36.86821 | 15965 ft | 203 kts | 300° |
| 2026-04-24 19:52 | -8.53123 | -36.89302 | 15961 ft | 205 kts | 300° |
| 2026-04-24 19:52 | -8.52406 | -36.90549 | 15965 ft | 206 kts | 300° |
| 2026-04-24 19:52 | -8.51687 | -36.91803 | 15961 ft | 206 kts | 300° |
| 2026-04-24 19:52 | -8.50970 | -36.93052 | 15969 ft | 205 kts | 300° |
| 2026-04-24 19:53 | -8.50259 | -36.94291 | 15964 ft | 203 kts | 300° |
| 2026-04-24 19:53 | -8.49552 | -36.95524 | 15955 ft | 203 kts | 300° |
| 2026-04-24 19:53 | -8.48132 | -36.98000 | 15961 ft | 205 kts | 300° |
| 2026-04-24 19:54 | -8.47416 | -36.99245 | 15964 ft | 205 kts | 300° |
| 2026-04-24 19:54 | -8.46703 | -37.00487 | 15964 ft | 204 kts | 300° |
| 2026-04-24 19:54 | -8.45994 | -37.01723 | 15965 ft | 203 kts | 300° |
| 2026-04-24 19:54 | -8.45526 | -37.02538 | 15969 ft | 202 kts | 300° |
| 2026-04-24 19:55 | -8.45049 | -37.03369 | 15966 ft | 202 kts | 300° |
| 2026-04-24 19:55 | -8.44106 | -37.05012 | 15957 ft | 201 kts | 300° |
| 2026-04-24 19:55 | -8.43415 | -37.06214 | 15953 ft | 200 kts | 300° |
| 2026-04-24 19:55 | -8.42715 | -37.07434 | 15953 ft | 201 kts | 300° |
| 2026-04-24 19:56 | -8.42012 | -37.08658 | 15953 ft | 202 kts | 300° |
| 2026-04-24 19:56 | -8.41307 | -37.09883 | 15952 ft | 202 kts | 300° |
| 2026-04-24 19:56 | -8.40600 | -37.11114 | 15948 ft | 203 kts | 300° |
| 2026-04-24 19:56 | -8.39891 | -37.12347 | 15953 ft | 203 kts | 300° |
| 2026-04-24 19:57 | -8.39183 | -37.13580 | 15956 ft | 203 kts | 300° |
| 2026-04-24 19:57 | -8.38475 | -37.14813 | 15954 ft | 203 kts | 300° |
| 2026-04-24 19:57 | -8.37766 | -37.16045 | 15955 ft | 203 kts | 300° |
| 2026-04-24 19:57 | -8.37055 | -37.17284 | 15948 ft | 204 kts | 300° |
| 2026-04-24 19:58 | -8.36342 | -37.18524 | 15951 ft | 204 kts | 300° |
| 2026-04-24 19:58 | -8.35629 | -37.19762 | 15947 ft | 204 kts | 300° |
| 2026-04-24 19:58 | -8.34917 | -37.21002 | 15950 ft | 204 kts | 300° |
| 2026-04-24 19:58 | -8.34204 | -37.22244 | 15946 ft | 204 kts | 300° |
| 2026-04-24 19:59 | -8.33488 | -37.23487 | 15953 ft | 205 kts | 300° |
| 2026-04-24 19:59 | -8.32772 | -37.24732 | 15948 ft | 205 kts | 300° |
| 2026-04-24 19:59 | -8.32060 | -37.25970 | 15951 ft | 204 kts | 301° |
| 2026-04-24 19:59 | -8.31349 | -37.27205 | 15949 ft | 203 kts | 301° |
| 2026-04-24 20:00 | -8.30641 | -37.28436 | 15947 ft | 203 kts | 301° |
| 2026-04-24 20:00 | -8.29933 | -37.29666 | 15948 ft | 203 kts | 300° |
| 2026-04-24 20:00 | -8.29228 | -37.30893 | 15949 ft | 202 kts | 300° |
| 2026-04-24 20:00 | -8.28522 | -37.32120 | 15948 ft | 202 kts | 301° |
| 2026-04-24 20:01 | -8.27816 | -37.33347 | 15943 ft | 202 kts | 301° |
| 2026-04-24 20:01 | -8.27111 | -37.34573 | 15943 ft | 202 kts | 301° |
| 2026-04-24 20:01 | -8.26406 | -37.35796 | 15943 ft | 201 kts | 301° |
| 2026-04-24 20:01 | -8.25703 | -37.37019 | 15943 ft | 202 kts | 301° |
| 2026-04-24 20:02 | -8.24998 | -37.38243 | 15940 ft | 202 kts | 301° |
| 2026-04-24 20:02 | -8.24290 | -37.39473 | 15943 ft | 203 kts | 301° |
| 2026-04-24 20:02 | -8.23582 | -37.40701 | 15943 ft | 202 kts | 301° |
| 2026-04-24 20:02 | -8.22876 | -37.41929 | 15943 ft | 203 kts | 301° |
| 2026-04-24 20:03 | -8.22163 | -37.43169 | 15941 ft | 205 kts | 301° |
| 2026-04-24 20:03 | -8.21442 | -37.44418 | 15946 ft | 206 kts | 301° |
| 2026-04-24 20:03 | -8.20719 | -37.45673 | 15949 ft | 207 kts | 301° |
| 2026-04-24 20:03 | -8.19995 | -37.46930 | 15950 ft | 208 kts | 301° |
| 2026-04-24 20:04 | -8.19278 | -37.48175 | 15944 ft | 208 kts | 301° |
| 2026-04-24 20:04 | -8.18550 | -37.49438 | 15947 ft | 208 kts | 301° |
| 2026-04-24 20:04 | -8.17822 | -37.50702 | 15949 ft | 208 kts | 301° |
| 2026-04-24 20:04 | -8.17095 | -37.51965 | 15953 ft | 208 kts | 301° |
| 2026-04-24 20:05 | -8.16366 | -37.53230 | 15952 ft | 208 kts | 301° |
| 2026-04-24 20:05 | -8.15637 | -37.54494 | 15952 ft | 208 kts | 301° |
| 2026-04-24 20:05 | -8.14909 | -37.55759 | 15950 ft | 208 kts | 301° |
| 2026-04-24 20:05 | -8.14180 | -37.57022 | 15948 ft | 208 kts | 301° |
| 2026-04-24 20:06 | -8.13451 | -37.58286 | 15948 ft | 208 kts | 301° |
| 2026-04-24 20:06 | -8.12722 | -37.59551 | 15948 ft | 209 kts | 301° |
| 2026-04-24 20:06 | -8.11993 | -37.60815 | 15948 ft | 208 kts | 301° |
| 2026-04-24 20:06 | -8.11264 | -37.62080 | 15943 ft | 208 kts | 301° |
| 2026-04-24 20:07 | -8.10771 | -37.62934 | 15942 ft | 208 kts | 301° |
| 2026-04-24 20:07 | -8.09807 | -37.64605 | 15947 ft | 208 kts | 301° |
| 2026-04-24 20:07 | -8.09080 | -37.65867 | 15943 ft | 208 kts | 301° |
| 2026-04-24 20:07 | -8.08351 | -37.67131 | 15941 ft | 209 kts | 301° |
| 2026-04-24 20:08 | -8.07615 | -37.68405 | 15951 ft | 214 kts | 301° |
| 2026-04-24 20:08 | -8.06849 | -37.69729 | 15951 ft | 222 kts | 301° |
| 2026-04-24 20:08 | -8.06063 | -37.71093 | 15949 ft | 227 kts | 301° |
| 2026-04-24 20:08 | -8.05263 | -37.72482 | 15947 ft | 230 kts | 301° |
| 2026-04-24 20:09 | -8.04455 | -37.73883 | 15954 ft | 232 kts | 301° |
| 2026-04-24 20:09 | -8.03639 | -37.75296 | 15958 ft | 233 kts | 301° |
| 2026-04-24 20:09 | -8.02821 | -37.76714 | 15951 ft | 234 kts | 301° |
| 2026-04-24 20:09 | -8.02003 | -37.78132 | 15951 ft | 234 kts | 301° |
| 2026-04-24 20:10 | -8.01186 | -37.79546 | 15957 ft | 233 kts | 301° |
| 2026-04-24 20:10 | -8.00372 | -37.80955 | 15959 ft | 232 kts | 301° |
| 2026-04-24 20:10 | -7.99559 | -37.82364 | 15957 ft | 233 kts | 301° |
| 2026-04-24 20:10 | -7.98745 | -37.83774 | 15954 ft | 232 kts | 301° |
| 2026-04-24 20:11 | -7.97932 | -37.85180 | 15953 ft | 232 kts | 301° |
| 2026-04-24 20:11 | -7.97122 | -37.86582 | 15955 ft | 231 kts | 301° |
| 2026-04-24 20:11 | -7.96313 | -37.87984 | 15955 ft | 231 kts | 301° |
| 2026-04-24 20:11 | -7.95504 | -37.89384 | 15951 ft | 231 kts | 301° |
| 2026-04-24 20:12 | -7.94695 | -37.90783 | 15950 ft | 231 kts | 301° |
| 2026-04-24 20:12 | -7.93887 | -37.92181 | 15952 ft | 231 kts | 301° |
| 2026-04-24 20:12 | -7.93079 | -37.93580 | 15954 ft | 231 kts | 301° |
| 2026-04-24 20:12 | -7.92282 | -37.94960 | 15949 ft | 231 kts | 301° |
| 2026-04-24 20:13 | -7.91473 | -37.96358 | 15955 ft | 231 kts | 301° |
| 2026-04-24 20:13 | -7.90666 | -37.97755 | 15951 ft | 231 kts | 301° |
| 2026-04-24 20:13 | -7.89858 | -37.99152 | 15953 ft | 230 kts | 301° |
| 2026-04-24 20:13 | -7.89051 | -38.00549 | 15954 ft | 231 kts | 301° |
| 2026-04-24 20:14 | -7.88243 | -38.01946 | 15955 ft | 231 kts | 301° |
| 2026-04-24 20:14 | -7.87435 | -38.03342 | 15956 ft | 231 kts | 301° |
| 2026-04-24 20:14 | -7.86626 | -38.04741 | 15958 ft | 231 kts | 301° |
| 2026-04-24 20:14 | -7.85818 | -38.06139 | 15958 ft | 231 kts | 301° |
| 2026-04-24 20:15 | -7.85007 | -38.07539 | 15950 ft | 231 kts | 301° |
| 2026-04-24 20:15 | -7.84198 | -38.08939 | 15956 ft | 231 kts | 301° |
| 2026-04-24 20:15 | -7.83388 | -38.10339 | 15955 ft | 231 kts | 301° |
| 2026-04-24 20:15 | -7.82578 | -38.11739 | 15950 ft | 231 kts | 301° |
| 2026-04-24 20:16 | -7.81768 | -38.13138 | 15951 ft | 231 kts | 301° |
| 2026-04-24 20:16 | -7.80958 | -38.14537 | 15954 ft | 231 kts | 301° |
| 2026-04-24 20:16 | -7.80148 | -38.15937 | 15954 ft | 231 kts | 301° |
| 2026-04-24 20:16 | -7.79336 | -38.17340 | 15951 ft | 232 kts | 301° |
| 2026-04-24 20:17 | -7.78524 | -38.18742 | 15955 ft | 231 kts | 301° |
| 2026-04-24 20:17 | -7.76901 | -38.21543 | 15946 ft | 231 kts | 301° |
| 2026-04-24 20:17 | -7.76092 | -38.22944 | 15949 ft | 231 kts | 301° |
| 2026-04-24 20:18 | -7.75545 | -38.23888 | 15947 ft | 231 kts | 301° |
| 2026-04-24 20:18 | -7.74471 | -38.25742 | 15945 ft | 231 kts | 301° |
| 2026-04-24 20:18 | -7.73661 | -38.27139 | 15950 ft | 231 kts | 301° |
| 2026-04-24 20:18 | -7.72852 | -38.28536 | 15949 ft | 231 kts | 301° |
| 2026-04-24 20:19 | -7.72043 | -38.29933 | 15952 ft | 231 kts | 301° |
| 2026-04-24 20:19 | -7.71232 | -38.31332 | 15952 ft | 231 kts | 301° |
| 2026-04-24 20:19 | -7.70421 | -38.32732 | 15949 ft | 231 kts | 301° |
| 2026-04-24 20:19 | -7.69611 | -38.34131 | 15950 ft | 231 kts | 301° |
| 2026-04-24 20:20 | -7.68801 | -38.35528 | 15953 ft | 231 kts | 301° |
| 2026-04-24 20:20 | -7.67991 | -38.36925 | 15950 ft | 231 kts | 301° |
| 2026-04-24 20:20 | -7.67181 | -38.38321 | 15954 ft | 231 kts | 301° |
| 2026-04-24 20:20 | -7.66372 | -38.39719 | 15953 ft | 231 kts | 301° |
| 2026-04-24 20:21 | -7.65562 | -38.41115 | 15950 ft | 231 kts | 301° |
| 2026-04-24 20:21 | -7.64751 | -38.42513 | 15942 ft | 231 kts | 301° |
| 2026-04-24 20:21 | -7.63941 | -38.43911 | 15946 ft | 231 kts | 301° |
| 2026-04-24 20:21 | -7.63130 | -38.45308 | 15942 ft | 231 kts | 301° |
| 2026-04-24 20:22 | -7.62320 | -38.46705 | 15943 ft | 231 kts | 301° |
| 2026-04-24 20:22 | -7.61509 | -38.48103 | 15944 ft | 231 kts | 301° |
| 2026-04-24 20:22 | -7.60698 | -38.49501 | 15952 ft | 231 kts | 301° |
| 2026-04-24 20:22 | -7.59886 | -38.50900 | 15951 ft | 231 kts | 301° |
| 2026-04-24 20:23 | -7.59074 | -38.52300 | 15949 ft | 231 kts | 301° |
| 2026-04-24 20:23 | -7.58263 | -38.53698 | 15949 ft | 231 kts | 301° |
| 2026-04-24 20:23 | -7.57451 | -38.55097 | 15945 ft | 231 kts | 301° |
| 2026-04-24 20:23 | -7.56639 | -38.56496 | 15944 ft | 231 kts | 301° |
| 2026-04-24 20:24 | -7.56101 | -38.57424 | 15952 ft | 231 kts | 301° |
| 2026-04-24 20:24 | -7.55014 | -38.59296 | 15947 ft | 231 kts | 301° |
| 2026-04-24 20:24 | -7.54201 | -38.60696 | 15947 ft | 231 kts | 301° |
| 2026-04-24 20:24 | -7.53389 | -38.62095 | 15950 ft | 231 kts | 301° |
| 2026-04-24 20:25 | -7.52576 | -38.63495 | 15949 ft | 231 kts | 301° |
| 2026-04-24 20:25 | -7.51763 | -38.64895 | 15950 ft | 231 kts | 301° |
| 2026-04-24 20:25 | -7.50949 | -38.66295 | 15956 ft | 232 kts | 301° |
| 2026-04-24 20:25 | -7.50136 | -38.67696 | 15941 ft | 232 kts | 301° |
| 2026-04-24 20:26 | -7.49320 | -38.69101 | 15944 ft | 232 kts | 301° |
| 2026-04-24 20:26 | -7.48507 | -38.70502 | 15949 ft | 232 kts | 301° |
| 2026-04-24 20:26 | -7.47704 | -38.71884 | 15951 ft | 232 kts | 301° |
| 2026-04-24 20:26 | -7.46876 | -38.73308 | 15950 ft | 232 kts | 301° |
| 2026-04-24 20:27 | -7.46072 | -38.74692 | 15947 ft | 232 kts | 301° |
| 2026-04-24 20:27 | -7.45257 | -38.76094 | 15945 ft | 232 kts | 301° |
| 2026-04-24 20:27 | -7.44441 | -38.77498 | 15949 ft | 232 kts | 301° |
| 2026-04-24 20:27 | -7.43626 | -38.78900 | 15947 ft | 232 kts | 301° |
| 2026-04-24 20:28 | -7.42811 | -38.80303 | 15951 ft | 232 kts | 301° |
| 2026-04-24 20:28 | -7.41996 | -38.81705 | 15951 ft | 232 kts | 301° |
| 2026-04-24 20:28 | -7.41180 | -38.83107 | 15951 ft | 232 kts | 301° |
| 2026-04-24 20:28 | -7.40366 | -38.84508 | 15951 ft | 232 kts | 301° |
| 2026-04-24 20:29 | -7.39814 | -38.85457 | 15947 ft | 232 kts | 301° |
| 2026-04-24 20:29 | -7.38734 | -38.87315 | 15948 ft | 232 kts | 301° |
| 2026-04-24 20:29 | -7.37918 | -38.88718 | 15952 ft | 232 kts | 301° |
| 2026-04-24 20:29 | -7.37101 | -38.90121 | 15947 ft | 232 kts | 301° |
| 2026-04-24 20:30 | -7.36285 | -38.91525 | 15948 ft | 233 kts | 301° |
| 2026-04-24 20:30 | -7.35467 | -38.92931 | 15947 ft | 232 kts | 301° |
| 2026-04-24 20:30 | -7.34649 | -38.94336 | 15948 ft | 233 kts | 301° |
| 2026-04-24 20:30 | -7.33831 | -38.95742 | 15953 ft | 232 kts | 301° |
| 2026-04-24 20:31 | -7.33015 | -38.97146 | 15957 ft | 232 kts | 301° |
| 2026-04-24 20:31 | -7.32197 | -38.98550 | 15956 ft | 232 kts | 301° |
| 2026-04-24 20:31 | -7.31380 | -38.99955 | 15957 ft | 232 kts | 301° |
| 2026-04-24 20:31 | -7.30563 | -39.01358 | 15958 ft | 232 kts | 301° |
| 2026-04-24 20:32 | -7.29745 | -39.02762 | 15960 ft | 232 kts | 301° |
| 2026-04-24 20:32 | -7.28927 | -39.04167 | 15959 ft | 232 kts | 301° |
| 2026-04-24 20:32 | -7.28110 | -39.05572 | 15954 ft | 233 kts | 301° |
| 2026-04-24 20:32 | -7.27291 | -39.06977 | 15959 ft | 233 kts | 301° |
| 2026-04-24 20:33 | -7.26473 | -39.08381 | 15968 ft | 232 kts | 301° |
| 2026-04-24 20:33 | -7.25656 | -39.09785 | 15964 ft | 232 kts | 301° |
| 2026-04-24 20:33 | -7.24838 | -39.11190 | 15967 ft | 232 kts | 301° |
| 2026-04-24 20:33 | -7.24021 | -39.12593 | 15967 ft | 233 kts | 301° |
| 2026-04-24 20:34 | -7.23202 | -39.13998 | 15967 ft | 233 kts | 301° |
| 2026-04-24 20:34 | -7.22382 | -39.15406 | 15968 ft | 233 kts | 301° |
| 2026-04-24 20:34 | -7.21563 | -39.16812 | 15965 ft | 233 kts | 301° |
| 2026-04-24 20:34 | -7.20743 | -39.18219 | 15975 ft | 233 kts | 301° |
| 2026-04-24 20:35 | -7.19923 | -39.19626 | 15975 ft | 233 kts | 301° |
| 2026-04-24 20:35 | -7.19113 | -39.21015 | 15975 ft | 233 kts | 301° |
| 2026-04-24 20:35 | -7.18293 | -39.22422 | 15975 ft | 233 kts | 301° |
| 2026-04-24 20:35 | -7.17474 | -39.23828 | 15969 ft | 233 kts | 301° |
| 2026-04-24 20:36 | -7.16653 | -39.25234 | 15968 ft | 233 kts | 301° |
| 2026-04-24 20:36 | -7.15834 | -39.26641 | 15974 ft | 233 kts | 301° |
| 2026-04-24 20:36 | -7.15014 | -39.28048 | 15974 ft | 233 kts | 301° |
| 2026-04-24 20:36 | -7.14193 | -39.29455 | 15974 ft | 233 kts | 301° |
| 2026-04-24 20:37 | -7.13372 | -39.30862 | 15975 ft | 233 kts | 301° |
| 2026-04-24 20:37 | -7.12552 | -39.32269 | 15968 ft | 233 kts | 301° |
| 2026-04-24 20:37 | -7.11730 | -39.33678 | 15973 ft | 233 kts | 301° |
| 2026-04-24 20:37 | -7.10909 | -39.35085 | 15972 ft | 233 kts | 301° |
| 2026-04-24 20:38 | -7.10087 | -39.36494 | 15965 ft | 233 kts | 302° |
| 2026-04-24 20:38 | -7.09265 | -39.37903 | 15951 ft | 233 kts | 302° |
| 2026-04-24 20:38 | -7.08442 | -39.39314 | 15953 ft | 234 kts | 302° |
| 2026-04-24 20:38 | -7.07619 | -39.40724 | 15954 ft | 234 kts | 302° |
| 2026-04-24 20:39 | -7.06797 | -39.42133 | 15961 ft | 234 kts | 302° |
| 2026-04-24 20:39 | -7.05973 | -39.43545 | 15963 ft | 234 kts | 302° |
| 2026-04-24 20:39 | -7.05148 | -39.44958 | 15962 ft | 234 kts | 302° |
| 2026-04-24 20:39 | -7.04326 | -39.46370 | 15963 ft | 234 kts | 301° |
| 2026-04-24 20:40 | -7.03540 | -39.47806 | 15944 ft | 234 kts | 302° |
| 2026-04-24 20:40 | -7.02691 | -39.49202 | 15946 ft | 234 kts | 303° |
| 2026-04-24 20:40 | -7.01849 | -39.50601 | 15944 ft | 234 kts | 302° |
| 2026-04-24 20:40 | -7.01026 | -39.52012 | 15945 ft | 234 kts | 301° |
| 2026-04-24 20:41 | -7.00204 | -39.53426 | 15943 ft | 234 kts | 302° |
| 2026-04-24 20:41 | -6.99659 | -39.54361 | 15941 ft | 234 kts | 302° |
| 2026-04-24 20:41 | -6.98835 | -39.55771 | 15944 ft | 234 kts | 302° |
| 2026-04-24 20:41 | -6.98011 | -39.57180 | 15947 ft | 234 kts | 302° |
| 2026-04-24 20:42 | -6.97187 | -39.58592 | 15951 ft | 234 kts | 302° |
| 2026-04-24 20:42 | -6.96363 | -39.60002 | 15951 ft | 234 kts | 302° |
| 2026-04-24 20:42 | -6.95537 | -39.61416 | 15948 ft | 234 kts | 302° |
| 2026-04-24 20:42 | -6.94712 | -39.62827 | 15947 ft | 234 kts | 302° |
| 2026-04-24 20:43 | -6.93886 | -39.64240 | 15943 ft | 234 kts | 302° |
| 2026-04-24 20:43 | -6.93060 | -39.65655 | 15945 ft | 234 kts | 302° |
| 2026-04-24 20:43 | -6.92234 | -39.67068 | 15951 ft | 234 kts | 302° |
| 2026-04-24 20:43 | -6.91407 | -39.68482 | 15947 ft | 234 kts | 302° |
| 2026-04-24 20:44 | -6.90582 | -39.69895 | 15953 ft | 234 kts | 302° |
| 2026-04-24 20:44 | -6.89756 | -39.71306 | 15936 ft | 234 kts | 302° |
| 2026-04-24 20:44 | -6.88931 | -39.72718 | 15940 ft | 234 kts | 302° |
| 2026-04-24 20:44 | -6.88104 | -39.74133 | 15942 ft | 234 kts | 302° |
| 2026-04-24 20:45 | -6.87277 | -39.75548 | 15943 ft | 235 kts | 302° |
| 2026-04-24 20:45 | -6.86449 | -39.76961 | 15941 ft | 234 kts | 302° |
| 2026-04-24 20:45 | -6.85623 | -39.78376 | 15942 ft | 234 kts | 302° |
| 2026-04-24 20:45 | -6.84798 | -39.79786 | 15947 ft | 234 kts | 302° |
| 2026-04-24 20:46 | -6.83973 | -39.81196 | 15947 ft | 234 kts | 302° |
| 2026-04-24 20:46 | -6.83147 | -39.82608 | 15945 ft | 234 kts | 302° |
| 2026-04-24 20:46 | -6.82321 | -39.84019 | 15942 ft | 234 kts | 302° |
| 2026-04-24 20:46 | -6.81497 | -39.85428 | 15945 ft | 234 kts | 302° |
| 2026-04-24 20:47 | -6.80672 | -39.86838 | 15945 ft | 234 kts | 302° |
| 2026-04-24 20:47 | -6.79846 | -39.88249 | 15946 ft | 234 kts | 302° |
| 2026-04-24 20:47 | -6.79021 | -39.89658 | 15947 ft | 234 kts | 302° |
| 2026-04-24 20:47 | -6.78194 | -39.91071 | 15948 ft | 234 kts | 302° |
| 2026-04-24 20:48 | -6.77369 | -39.92481 | 15947 ft | 234 kts | 302° |
| 2026-04-24 20:48 | -6.76543 | -39.93892 | 15946 ft | 234 kts | 302° |
| 2026-04-24 20:48 | -6.75717 | -39.95303 | 15941 ft | 234 kts | 302° |
| 2026-04-24 20:48 | -6.74902 | -39.96695 | 15944 ft | 234 kts | 302° |
| 2026-04-24 20:49 | -6.74076 | -39.98104 | 15937 ft | 234 kts | 302° |
| 2026-04-24 20:49 | -6.73251 | -39.99515 | 15938 ft | 234 kts | 302° |
| 2026-04-24 20:49 | -6.72426 | -40.00924 | 15940 ft | 234 kts | 302° |
| 2026-04-24 20:49 | -6.71599 | -40.02335 | 15943 ft | 234 kts | 302° |
| 2026-04-24 20:50 | -6.70773 | -40.03745 | 15947 ft | 234 kts | 302° |
| 2026-04-24 20:50 | -6.69946 | -40.05156 | 15941 ft | 234 kts | 302° |
| 2026-04-24 20:50 | -6.69119 | -40.06567 | 15946 ft | 234 kts | 302° |
| 2026-04-24 20:50 | -6.68292 | -40.07979 | 15948 ft | 234 kts | 302° |
| 2026-04-24 20:51 | -6.67467 | -40.09389 | 15944 ft | 234 kts | 302° |
| 2026-04-24 20:51 | -6.66639 | -40.10802 | 15941 ft | 234 kts | 302° |
| 2026-04-24 20:51 | -6.65811 | -40.12214 | 15943 ft | 234 kts | 302° |
| 2026-04-24 20:51 | -6.64983 | -40.13625 | 15947 ft | 234 kts | 302° |
| 2026-04-24 20:52 | -6.64155 | -40.15039 | 15945 ft | 235 kts | 302° |
| 2026-04-24 20:52 | -6.63327 | -40.16453 | 15947 ft | 235 kts | 302° |
| 2026-04-24 20:52 | -6.62499 | -40.17865 | 15944 ft | 234 kts | 302° |
| 2026-04-24 20:52 | -6.61673 | -40.19276 | 15945 ft | 234 kts | 302° |
| 2026-04-24 20:53 | -6.60845 | -40.20689 | 15947 ft | 234 kts | 302° |
| 2026-04-24 20:53 | -6.60014 | -40.22101 | 15942 ft | 234 kts | 302° |
| 2026-04-24 20:53 | -6.59187 | -40.23513 | 15944 ft | 234 kts | 302° |
| 2026-04-24 20:53 | -6.58359 | -40.24926 | 15943 ft | 234 kts | 302° |
| 2026-04-24 20:54 | -6.57530 | -40.26338 | 15945 ft | 235 kts | 302° |
| 2026-04-24 20:54 | -6.56701 | -40.27752 | 15943 ft | 235 kts | 302° |
| 2026-04-24 20:54 | -6.55871 | -40.29167 | 15945 ft | 235 kts | 302° |
| 2026-04-24 20:54 | -6.55042 | -40.30580 | 15939 ft | 235 kts | 302° |
| 2026-04-24 20:55 | -6.54212 | -40.31994 | 15949 ft | 235 kts | 302° |
| 2026-04-24 20:55 | -6.53383 | -40.33408 | 15948 ft | 235 kts | 302° |
| 2026-04-24 20:55 | -6.52552 | -40.34823 | 15943 ft | 235 kts | 302° |
| 2026-04-24 20:55 | -6.51722 | -40.36238 | 15950 ft | 235 kts | 302° |
| 2026-04-24 20:56 | -6.50891 | -40.37655 | 15943 ft | 235 kts | 302° |
| 2026-04-24 20:56 | -6.50071 | -40.39050 | 15951 ft | 235 kts | 302° |
| 2026-04-24 20:56 | -6.49241 | -40.40465 | 15951 ft | 235 kts | 302° |
| 2026-04-24 20:56 | -6.48410 | -40.41880 | 15941 ft | 235 kts | 302° |
| 2026-04-24 20:57 | -6.47580 | -40.43295 | 15942 ft | 235 kts | 302° |
| 2026-04-24 20:57 | -6.46749 | -40.44709 | 15948 ft | 235 kts | 302° |
| 2026-04-24 20:57 | -6.45919 | -40.46123 | 15948 ft | 235 kts | 302° |
| 2026-04-24 20:57 | -6.45091 | -40.47538 | 15951 ft | 235 kts | 302° |
| 2026-04-24 20:58 | -6.44261 | -40.48951 | 15952 ft | 235 kts | 302° |
| 2026-04-24 20:58 | -6.43429 | -40.50363 | 15952 ft | 235 kts | 302° |
| 2026-04-24 20:58 | -6.42599 | -40.51775 | 15950 ft | 235 kts | 302° |
| 2026-04-24 20:58 | -6.41769 | -40.53190 | 15953 ft | 235 kts | 302° |
| 2026-04-24 20:59 | -6.40939 | -40.54604 | 15947 ft | 235 kts | 302° |
| 2026-04-24 20:59 | -6.40108 | -40.56018 | 15950 ft | 235 kts | 302° |
| 2026-04-24 20:59 | -6.39277 | -40.57432 | 15953 ft | 235 kts | 302° |
| 2026-04-24 20:59 | -6.38447 | -40.58844 | 15953 ft | 235 kts | 302° |
| 2026-04-24 21:00 | -6.37616 | -40.60258 | 15957 ft | 235 kts | 302° |
| 2026-04-24 21:00 | -6.36786 | -40.61670 | 15951 ft | 235 kts | 302° |
| 2026-04-24 21:00 | -6.35954 | -40.63086 | 15957 ft | 235 kts | 302° |
| 2026-04-24 21:00 | -6.35123 | -40.64501 | 15957 ft | 235 kts | 302° |
| 2026-04-24 21:01 | -6.34292 | -40.65914 | 15953 ft | 235 kts | 302° |
| 2026-04-24 21:01 | -6.33460 | -40.67329 | 15957 ft | 235 kts | 302° |
| 2026-04-24 21:01 | -6.32629 | -40.68743 | 15954 ft | 235 kts | 302° |
| 2026-04-24 21:01 | -6.31798 | -40.70156 | 15958 ft | 235 kts | 302° |
| 2026-04-24 21:02 | -6.30966 | -40.71570 | 15957 ft | 235 kts | 302° |
| 2026-04-24 21:02 | -6.30135 | -40.72984 | 15959 ft | 235 kts | 302° |
| 2026-04-24 21:02 | -6.29305 | -40.74396 | 15962 ft | 235 kts | 302° |
| 2026-04-24 21:02 | -6.28473 | -40.75810 | 15962 ft | 235 kts | 302° |
| 2026-04-24 21:03 | -6.27641 | -40.77224 | 15963 ft | 235 kts | 302° |
| 2026-04-24 21:03 | -6.26808 | -40.78640 | 15962 ft | 235 kts | 302° |
| 2026-04-24 21:03 | -6.25975 | -40.80057 | 15962 ft | 235 kts | 302° |
| 2026-04-24 21:03 | -6.25143 | -40.81471 | 15965 ft | 235 kts | 302° |
| 2026-04-24 21:04 | -6.24310 | -40.82887 | 15960 ft | 235 kts | 302° |
| 2026-04-24 21:04 | -6.23479 | -40.84300 | 15958 ft | 235 kts | 302° |
| 2026-04-24 21:04 | -6.22648 | -40.85712 | 15955 ft | 235 kts | 302° |
| 2026-04-24 21:04 | -6.21817 | -40.87123 | 15959 ft | 234 kts | 302° |
| 2026-04-24 21:05 | -6.20988 | -40.88532 | 15955 ft | 234 kts | 302° |
| 2026-04-24 21:05 | -6.20157 | -40.89943 | 15954 ft | 234 kts | 302° |
| 2026-04-24 21:05 | -6.19328 | -40.91352 | 15957 ft | 234 kts | 302° |
| 2026-04-24 21:05 | -6.18497 | -40.92763 | 15951 ft | 235 kts | 302° |
| 2026-04-24 21:06 | -6.17665 | -40.94176 | 15956 ft | 235 kts | 302° |
| 2026-04-24 21:06 | -6.16832 | -40.95592 | 15953 ft | 235 kts | 302° |
| 2026-04-24 21:06 | -6.15999 | -40.97007 | 15957 ft | 235 kts | 302° |
| 2026-04-24 21:06 | -6.15166 | -40.98421 | 15957 ft | 235 kts | 302° |
| 2026-04-24 21:07 | -6.14334 | -40.99834 | 15957 ft | 235 kts | 302° |
| 2026-04-24 21:07 | -6.13501 | -41.01248 | 15958 ft | 235 kts | 302° |
| 2026-04-24 21:07 | -6.12667 | -41.02663 | 15952 ft | 235 kts | 302° |
| 2026-04-24 21:07 | -6.11835 | -41.04076 | 15955 ft | 235 kts | 302° |
| 2026-04-24 21:08 | -6.11013 | -41.05472 | 15957 ft | 235 kts | 302° |
| 2026-04-24 21:08 | -6.10180 | -41.06886 | 15958 ft | 235 kts | 302° |
| 2026-04-24 21:08 | -6.09347 | -41.08300 | 15954 ft | 235 kts | 302° |
| 2026-04-24 21:08 | -6.08515 | -41.09712 | 15954 ft | 235 kts | 302° |
| 2026-04-24 21:09 | -6.07681 | -41.11126 | 15953 ft | 235 kts | 302° |
| 2026-04-24 21:09 | -6.06847 | -41.12541 | 15953 ft | 235 kts | 302° |
| 2026-04-24 21:09 | -6.06014 | -41.13956 | 15951 ft | 236 kts | 302° |
| 2026-04-24 21:09 | -6.05179 | -41.15373 | 15948 ft | 235 kts | 302° |
| 2026-04-24 21:10 | -6.04345 | -41.16787 | 15954 ft | 235 kts | 302° |
| 2026-04-24 21:10 | -6.03512 | -41.18200 | 15949 ft | 235 kts | 302° |
| 2026-04-24 21:10 | -6.02679 | -41.19613 | 15950 ft | 235 kts | 302° |
| 2026-04-24 21:10 | -6.01846 | -41.21025 | 15945 ft | 235 kts | 302° |
| 2026-04-24 21:11 | -6.01014 | -41.22437 | 15949 ft | 235 kts | 302° |
| 2026-04-24 21:11 | -6.00181 | -41.23849 | 15949 ft | 235 kts | 302° |
| 2026-04-24 21:11 | -5.99349 | -41.25261 | 15946 ft | 235 kts | 302° |
| 2026-04-24 21:11 | -5.98517 | -41.26672 | 15943 ft | 235 kts | 302° |
| 2026-04-24 21:12 | -5.97685 | -41.28082 | 15940 ft | 235 kts | 302° |
| 2026-04-24 21:12 | -5.97135 | -41.29015 | 15942 ft | 235 kts | 302° |
| 2026-04-24 21:12 | -5.96020 | -41.30905 | 15944 ft | 235 kts | 302° |
| 2026-04-24 21:12 | -5.95187 | -41.32317 | 15942 ft | 235 kts | 302° |
| 2026-04-24 21:13 | -5.94354 | -41.33729 | 15938 ft | 235 kts | 302° |
| 2026-04-24 21:13 | -5.93520 | -41.35141 | 15938 ft | 235 kts | 302° |
| 2026-04-24 21:13 | -5.92688 | -41.36554 | 15938 ft | 235 kts | 302° |
| 2026-04-24 21:13 | -5.91853 | -41.37966 | 15938 ft | 235 kts | 302° |
| 2026-04-24 21:14 | -5.91020 | -41.39378 | 15944 ft | 235 kts | 302° |
| 2026-04-24 21:14 | -5.90187 | -41.40791 | 15944 ft | 235 kts | 302° |
| 2026-04-24 21:14 | -5.89353 | -41.42203 | 15944 ft | 235 kts | 302° |
| 2026-04-24 21:14 | -5.88520 | -41.43614 | 15938 ft | 235 kts | 302° |
| 2026-04-24 21:15 | -5.87686 | -41.45027 | 15933 ft | 235 kts | 302° |
| 2026-04-24 21:15 | -5.86852 | -41.46440 | 15936 ft | 235 kts | 302° |
| 2026-04-24 21:15 | -5.86018 | -41.47853 | 15935 ft | 235 kts | 302° |
| 2026-04-24 21:15 | -5.85184 | -41.49265 | 15934 ft | 235 kts | 302° |
| 2026-04-24 21:16 | -5.84349 | -41.50679 | 15935 ft | 235 kts | 302° |
| 2026-04-24 21:16 | -5.83514 | -41.52093 | 15927 ft | 235 kts | 302° |
| 2026-04-24 21:16 | -5.82680 | -41.53506 | 15926 ft | 235 kts | 302° |
| 2026-04-24 21:16 | -5.81846 | -41.54917 | 15926 ft | 235 kts | 302° |
| 2026-04-24 21:17 | -5.81013 | -41.56328 | 15927 ft | 235 kts | 302° |
| 2026-04-24 21:17 | -5.80179 | -41.57740 | 15923 ft | 235 kts | 302° |
| 2026-04-24 21:17 | -5.79346 | -41.59150 | 15926 ft | 235 kts | 302° |
| 2026-04-24 21:17 | -5.78794 | -41.60084 | 15928 ft | 235 kts | 302° |
| 2026-04-24 21:18 | -5.77680 | -41.61970 | 15924 ft | 235 kts | 302° |
| 2026-04-24 21:18 | -5.76858 | -41.63360 | 15927 ft | 235 kts | 302° |
| 2026-04-24 21:18 | -5.76026 | -41.64769 | 15924 ft | 235 kts | 302° |
| 2026-04-24 21:18 | -5.75193 | -41.66177 | 15926 ft | 235 kts | 302° |
| 2026-04-24 21:19 | -5.74360 | -41.67587 | 15928 ft | 235 kts | 302° |
| 2026-04-24 21:19 | -5.73528 | -41.68997 | 15927 ft | 235 kts | 302° |
| 2026-04-24 21:19 | -5.72694 | -41.70406 | 15924 ft | 235 kts | 302° |
| 2026-04-24 21:19 | -5.71861 | -41.71815 | 15929 ft | 235 kts | 302° |
| 2026-04-24 21:20 | -5.70196 | -41.74632 | 15928 ft | 235 kts | 302° |
| 2026-04-24 21:20 | -5.69362 | -41.76042 | 15928 ft | 235 kts | 302° |
| 2026-04-24 21:20 | -5.68528 | -41.77454 | 15929 ft | 235 kts | 302° |
| 2026-04-24 21:21 | -5.67693 | -41.78865 | 15924 ft | 235 kts | 302° |
| 2026-04-24 21:21 | -5.66860 | -41.80275 | 15921 ft | 235 kts | 302° |
| 2026-04-24 21:21 | -5.66026 | -41.81683 | 15919 ft | 235 kts | 302° |
| 2026-04-24 21:21 | -5.65192 | -41.83094 | 15924 ft | 235 kts | 302° |
| 2026-04-24 21:22 | -5.64358 | -41.84504 | 15919 ft | 235 kts | 302° |
| 2026-04-24 21:22 | -5.63523 | -41.85915 | 15920 ft | 235 kts | 302° |
| 2026-04-24 21:22 | -5.62690 | -41.87325 | 15916 ft | 235 kts | 302° |
| 2026-04-24 21:22 | -5.62126 | -41.88278 | 15918 ft | 235 kts | 302° |
| 2026-04-24 21:23 | -5.61021 | -41.90145 | 15915 ft | 235 kts | 302° |
| 2026-04-24 21:23 | -5.60187 | -41.91554 | 15915 ft | 235 kts | 302° |
| 2026-04-24 21:23 | -5.59353 | -41.92964 | 15915 ft | 235 kts | 302° |
| 2026-04-24 21:23 | -5.58519 | -41.94374 | 15914 ft | 235 kts | 302° |
| 2026-04-24 21:24 | -5.57685 | -41.95783 | 15918 ft | 235 kts | 302° |
| 2026-04-24 21:24 | -5.56850 | -41.97194 | 15915 ft | 235 kts | 302° |
| 2026-04-24 21:24 | -5.56015 | -41.98604 | 15915 ft | 235 kts | 302° |
| 2026-04-24 21:24 | -5.55180 | -42.00013 | 15912 ft | 235 kts | 302° |
| 2026-04-24 21:25 | -5.54346 | -42.01422 | 15918 ft | 235 kts | 302° |
| 2026-04-24 21:25 | -5.53513 | -42.02831 | 15918 ft | 235 kts | 302° |
| 2026-04-24 21:25 | -5.52680 | -42.04239 | 15914 ft | 235 kts | 302° |
| 2026-04-24 21:25 | -5.51846 | -42.05645 | 15918 ft | 235 kts | 302° |
| 2026-04-24 21:26 | -5.51011 | -42.07056 | 15915 ft | 235 kts | 302° |
| 2026-04-24 21:26 | -5.50177 | -42.08465 | 15916 ft | 235 kts | 302° |
| 2026-04-24 21:26 | -5.49342 | -42.09874 | 15911 ft | 235 kts | 302° |
| 2026-04-24 21:26 | -5.48509 | -42.11282 | 15915 ft | 235 kts | 302° |
| 2026-04-24 21:27 | -5.47675 | -42.12690 | 15913 ft | 235 kts | 302° |
| 2026-04-24 21:27 | -5.46841 | -42.14097 | 15908 ft | 235 kts | 302° |
| 2026-04-24 21:27 | -5.46007 | -42.15504 | 15913 ft | 235 kts | 302° |
| 2026-04-24 21:27 | -5.45455 | -42.16437 | 15914 ft | 235 kts | 302° |
| 2026-04-24 21:28 | -5.44620 | -42.17845 | 15917 ft | 235 kts | 302° |
| 2026-04-24 21:28 | -5.43786 | -42.19254 | 15917 ft | 235 kts | 302° |
| 2026-04-24 21:28 | -5.42952 | -42.20663 | 15916 ft | 235 kts | 302° |
| 2026-04-24 21:28 | -5.42118 | -42.22069 | 15911 ft | 235 kts | 302° |
| 2026-04-24 21:29 | -5.41284 | -42.23477 | 15914 ft | 235 kts | 302° |
| 2026-04-24 21:29 | -5.40450 | -42.24884 | 15912 ft | 235 kts | 302° |
| 2026-04-24 21:29 | -5.39616 | -42.26292 | 15910 ft | 234 kts | 302° |
| 2026-04-24 21:29 | -5.38782 | -42.27697 | 15911 ft | 234 kts | 302° |
| 2026-04-24 21:30 | -5.37949 | -42.29103 | 15912 ft | 234 kts | 302° |
| 2026-04-24 21:30 | -5.37115 | -42.30509 | 15908 ft | 234 kts | 302° |
| 2026-04-24 21:30 | -5.36282 | -42.31916 | 15912 ft | 234 kts | 302° |
| 2026-04-24 21:30 | -5.35448 | -42.33322 | 15913 ft | 235 kts | 302° |
| 2026-04-24 21:31 | -5.34614 | -42.34729 | 15913 ft | 235 kts | 302° |
| 2026-04-24 21:31 | -5.33780 | -42.36135 | 15912 ft | 235 kts | 302° |
| 2026-04-24 21:31 | -5.32956 | -42.37525 | 15913 ft | 234 kts | 302° |
| 2026-04-24 21:31 | -5.32126 | -42.38923 | 15909 ft | 233 kts | 302° |
| 2026-04-24 21:32 | -5.31287 | -42.40336 | 15908 ft | 232 kts | 302° |
| 2026-04-24 21:32 | -5.30474 | -42.41708 | 15907 ft | 232 kts | 302° |
| 2026-04-24 21:32 | -5.29651 | -42.43096 | 15906 ft | 231 kts | 302° |
| 2026-04-24 21:32 | -5.28829 | -42.44482 | 15905 ft | 231 kts | 303° |
| 2026-04-24 21:33 | -5.28006 | -42.45868 | 15909 ft | 231 kts | 302° |
| 2026-04-24 21:33 | -5.27184 | -42.47253 | 15909 ft | 231 kts | 302° |
| 2026-04-24 21:33 | -5.26362 | -42.48638 | 15909 ft | 231 kts | 302° |
| 2026-04-24 21:33 | -5.25542 | -42.50022 | 15909 ft | 231 kts | 302° |
| 2026-04-24 21:34 | -5.24721 | -42.51406 | 15904 ft | 231 kts | 303° |
| 2026-04-24 21:34 | -5.23898 | -42.52791 | 15906 ft | 231 kts | 303° |
| 2026-04-24 21:34 | -5.23077 | -42.54176 | 15900 ft | 231 kts | 302° |
| 2026-04-24 21:34 | -5.22256 | -42.55560 | 15894 ft | 231 kts | 302° |
| 2026-04-24 21:35 | -5.21433 | -42.56945 | 15888 ft | 231 kts | 302° |
| 2026-04-24 21:35 | -5.20612 | -42.58328 | 15890 ft | 231 kts | 302° |
| 2026-04-24 21:35 | -5.19791 | -42.59711 | 15884 ft | 231 kts | 302° |
| 2026-04-24 21:35 | -5.18971 | -42.61093 | 15880 ft | 231 kts | 302° |
| 2026-04-24 21:36 | -5.18151 | -42.62475 | 15881 ft | 231 kts | 303° |
| 2026-04-24 21:36 | -5.17328 | -42.63860 | 15876 ft | 231 kts | 303° |
| 2026-04-24 21:36 | -5.16506 | -42.65245 | 15874 ft | 231 kts | 302° |
| 2026-04-24 21:36 | -5.15683 | -42.66632 | 15871 ft | 231 kts | 302° |
| 2026-04-24 21:37 | -5.14860 | -42.68017 | 15869 ft | 231 kts | 303° |
| 2026-04-24 21:37 | -5.14036 | -42.69404 | 15861 ft | 231 kts | 303° |
| 2026-04-24 21:37 | -5.13212 | -42.70791 | 15858 ft | 231 kts | 303° |
| 2026-04-24 21:37 | -5.12390 | -42.72177 | 15858 ft | 231 kts | 303° |
| 2026-04-24 21:38 | -5.11566 | -42.73563 | 15853 ft | 231 kts | 303° |
| 2026-04-24 21:38 | -5.10742 | -42.74949 | 15852 ft | 231 kts | 303° |
| 2026-04-24 21:38 | -5.09918 | -42.76337 | 15851 ft | 231 kts | 303° |
| 2026-04-24 21:38 | -5.09106 | -42.77704 | 15849 ft | 231 kts | 303° |
| 2026-04-24 21:39 | -5.08282 | -42.79091 | 15850 ft | 231 kts | 303° |
| 2026-04-24 21:39 | -5.07459 | -42.80476 | 15850 ft | 231 kts | 303° |
| 2026-04-24 21:39 | -5.06620 | -42.81849 | 15848 ft | 231 kts | 308° |
| 2026-04-24 21:39 | -5.05481 | -42.82947 | 15844 ft | 227 kts | 329° |
| 2026-04-24 21:40 | -5.04125 | -42.83741 | 15845 ft | 225 kts | 334° |
| 2026-04-24 21:40 | -5.02763 | -42.84522 | 15845 ft | 225 kts | 334° |
| 2026-04-24 21:40 | -5.01404 | -42.85308 | 15847 ft | 225 kts | 333° |
| 2026-04-24 21:40 | -5.00045 | -42.86093 | 15847 ft | 225 kts | 333° |
| 2026-04-24 21:41 | -4.98686 | -42.86876 | 15847 ft | 225 kts | 333° |
| 2026-04-24 21:41 | -4.97327 | -42.87659 | 15849 ft | 225 kts | 334° |
| 2026-04-24 21:41 | -4.95968 | -42.88443 | 15853 ft | 225 kts | 334° |
| 2026-04-24 21:41 | -4.94609 | -42.89227 | 15855 ft | 225 kts | 333° |
| 2026-04-24 21:42 | -4.93250 | -42.90010 | 15864 ft | 226 kts | 333° |
| 2026-04-24 21:42 | -4.91888 | -42.90794 | 15912 ft | 226 kts | 333° |
| 2026-04-24 21:42 | -4.90530 | -42.91578 | 15912 ft | 226 kts | 334° |
| 2026-04-24 21:42 | -4.89166 | -42.92364 | 15912 ft | 226 kts | 333° |
| 2026-04-24 21:43 | -4.87806 | -42.93148 | 15911 ft | 225 kts | 333° |
| 2026-04-24 21:43 | -4.86445 | -42.93932 | 15912 ft | 225 kts | 334° |
| 2026-04-24 21:43 | -4.85085 | -42.94716 | 15908 ft | 226 kts | 333° |
| 2026-04-24 21:43 | -4.83725 | -42.95500 | 15911 ft | 226 kts | 333° |
| 2026-04-24 21:44 | -4.82365 | -42.96284 | 15907 ft | 226 kts | 333° |
| 2026-04-24 21:44 | -4.81004 | -42.97068 | 15911 ft | 226 kts | 333° |
| 2026-04-24 21:44 | -4.79643 | -42.97852 | 15911 ft | 226 kts | 333° |
| 2026-04-24 21:44 | -4.78301 | -42.98626 | 15911 ft | 225 kts | 334° |
| 2026-04-24 21:45 | -4.76941 | -42.99410 | 15911 ft | 226 kts | 333° |
| 2026-04-24 21:45 | -4.75563 | -43.00203 | 15909 ft | 225 kts | 334° |
| 2026-04-24 21:45 | -4.74222 | -43.00976 | 15910 ft | 225 kts | 334° |
| 2026-04-24 21:45 | -4.72861 | -43.01757 | 15908 ft | 225 kts | 334° |
| 2026-04-24 21:46 | -4.71503 | -43.02540 | 15910 ft | 225 kts | 334° |
| 2026-04-24 21:46 | -4.70144 | -43.03324 | 15904 ft | 225 kts | 334° |
| 2026-04-24 21:46 | -4.68784 | -43.04107 | 15904 ft | 225 kts | 334° |
| 2026-04-24 21:46 | -4.67426 | -43.04890 | 15907 ft | 225 kts | 334° |
| 2026-04-24 21:47 | -4.66066 | -43.05672 | 15907 ft | 225 kts | 334° |
| 2026-04-24 21:47 | -4.65148 | -43.06202 | 15907 ft | 226 kts | 334° |
| 2026-04-24 21:47 | -4.63346 | -43.07240 | 15907 ft | 225 kts | 334° |
| 2026-04-24 21:47 | -4.61988 | -43.08021 | 15907 ft | 225 kts | 334° |
| 2026-04-24 21:48 | -4.60627 | -43.08805 | 15907 ft | 225 kts | 334° |
| 2026-04-24 21:48 | -4.59268 | -43.09588 | 15907 ft | 225 kts | 334° |
| 2026-04-24 21:48 | -4.57905 | -43.10372 | 15907 ft | 227 kts | 334° |
| 2026-04-24 21:48 | -4.56532 | -43.11162 | 15909 ft | 228 kts | 334° |
| 2026-04-24 21:49 | -4.55154 | -43.11956 | 15912 ft | 229 kts | 334° |
| 2026-04-24 21:49 | -4.53774 | -43.12751 | 15913 ft | 229 kts | 334° |
| 2026-04-24 21:49 | -4.52394 | -43.13546 | 15913 ft | 229 kts | 334° |
| 2026-04-24 21:49 | -4.51009 | -43.14343 | 15913 ft | 229 kts | 334° |
| 2026-04-24 21:50 | -4.49626 | -43.15140 | 15911 ft | 229 kts | 334° |
| 2026-04-24 21:50 | -4.48242 | -43.15936 | 15911 ft | 229 kts | 334° |
| 2026-04-24 21:50 | -4.46856 | -43.16729 | 15912 ft | 229 kts | 334° |
| 2026-04-24 21:50 | -4.45470 | -43.17522 | 15912 ft | 230 kts | 334° |
| 2026-04-24 21:51 | -4.44082 | -43.18316 | 15914 ft | 230 kts | 334° |
| 2026-04-24 21:51 | -4.42696 | -43.19110 | 15912 ft | 230 kts | 334° |
| 2026-04-24 21:51 | -4.41310 | -43.19903 | 15915 ft | 230 kts | 334° |
| 2026-04-24 21:51 | -4.39923 | -43.20696 | 15915 ft | 230 kts | 334° |
| 2026-04-24 21:52 | -4.38536 | -43.21491 | 15911 ft | 229 kts | 334° |
| 2026-04-24 21:52 | -4.37150 | -43.22283 | 15914 ft | 229 kts | 334° |
| 2026-04-24 21:52 | -4.35764 | -43.23076 | 15914 ft | 230 kts | 334° |
| 2026-04-24 21:52 | -4.34377 | -43.23870 | 15915 ft | 230 kts | 334° |
| 2026-04-24 21:53 | -4.32991 | -43.24663 | 15913 ft | 230 kts | 334° |
| 2026-04-24 21:53 | -4.31603 | -43.25456 | 15915 ft | 230 kts | 334° |
| 2026-04-24 21:53 | -4.30216 | -43.26250 | 15912 ft | 230 kts | 334° |
| 2026-04-24 21:53 | -4.28830 | -43.27044 | 15916 ft | 229 kts | 334° |
| 2026-04-24 21:54 | -4.27443 | -43.27837 | 15915 ft | 229 kts | 334° |
| 2026-04-24 21:54 | -4.26056 | -43.28630 | 15916 ft | 230 kts | 334° |
| 2026-04-24 21:54 | -4.24671 | -43.29422 | 15914 ft | 229 kts | 334° |
| 2026-04-24 21:54 | -4.23284 | -43.30215 | 15915 ft | 229 kts | 334° |
| 2026-04-24 21:55 | -4.21898 | -43.31008 | 15916 ft | 229 kts | 334° |
| 2026-04-24 21:55 | -4.20558 | -43.31775 | 15916 ft | 229 kts | 334° |
| 2026-04-24 21:55 | -4.19171 | -43.32568 | 15916 ft | 229 kts | 334° |
| 2026-04-24 21:55 | -4.17786 | -43.33360 | 15916 ft | 229 kts | 334° |
| 2026-04-24 21:56 | -4.16400 | -43.34153 | 15918 ft | 230 kts | 334° |
| 2026-04-24 21:56 | -4.15012 | -43.34946 | 15919 ft | 230 kts | 334° |
| 2026-04-24 21:56 | -4.13626 | -43.35739 | 15919 ft | 230 kts | 334° |
| 2026-04-24 21:56 | -4.12240 | -43.36532 | 15920 ft | 230 kts | 334° |
| 2026-04-24 21:57 | -4.10851 | -43.37325 | 15916 ft | 230 kts | 334° |
| 2026-04-24 21:57 | -4.09463 | -43.38118 | 15916 ft | 230 kts | 334° |
| 2026-04-24 21:57 | -4.08075 | -43.38913 | 15913 ft | 230 kts | 334° |
| 2026-04-24 21:57 | -4.06705 | -43.39696 | 15917 ft | 230 kts | 334° |
| 2026-04-24 21:58 | -4.05316 | -43.40490 | 15920 ft | 230 kts | 334° |
| 2026-04-24 21:58 | -4.03928 | -43.41284 | 15916 ft | 230 kts | 334° |
| 2026-04-24 21:58 | -4.02539 | -43.42079 | 15915 ft | 230 kts | 334° |
| 2026-04-24 21:58 | -4.01150 | -43.42875 | 15915 ft | 230 kts | 334° |
| 2026-04-24 21:59 | -3.99761 | -43.43671 | 15917 ft | 230 kts | 334° |
| 2026-04-24 21:59 | -3.98373 | -43.44466 | 15922 ft | 230 kts | 334° |
| 2026-04-24 21:59 | -3.96983 | -43.45262 | 15923 ft | 230 kts | 334° |
| 2026-04-24 21:59 | -3.95592 | -43.46059 | 15920 ft | 230 kts | 334° |
| 2026-04-24 22:00 | -3.94200 | -43.46856 | 15923 ft | 230 kts | 334° |
| 2026-04-24 22:00 | -3.92811 | -43.47652 | 15923 ft | 230 kts | 334° |
| 2026-04-24 22:00 | -3.91421 | -43.48448 | 15923 ft | 230 kts | 334° |
| 2026-04-24 22:00 | -3.90030 | -43.49244 | 15921 ft | 230 kts | 334° |
| 2026-04-24 22:01 | -3.88639 | -43.50041 | 15916 ft | 230 kts | 334° |
| 2026-04-24 22:01 | -3.87248 | -43.50838 | 15925 ft | 230 kts | 334° |
| 2026-04-24 22:01 | -3.85895 | -43.51612 | 15926 ft | 230 kts | 334° |
| 2026-04-24 22:01 | -3.84506 | -43.52408 | 15927 ft | 230 kts | 334° |
| 2026-04-24 22:02 | -3.83118 | -43.53202 | 15929 ft | 230 kts | 334° |
| 2026-04-24 22:02 | -3.81731 | -43.53996 | 15928 ft | 230 kts | 334° |
| 2026-04-24 22:02 | -3.80345 | -43.54790 | 15929 ft | 229 kts | 334° |
| 2026-04-24 22:02 | -3.78959 | -43.55583 | 15929 ft | 230 kts | 334° |
| 2026-04-24 22:03 | -3.77591 | -43.56366 | 15925 ft | 230 kts | 334° |
| 2026-04-24 22:03 | -3.76205 | -43.57161 | 15925 ft | 230 kts | 334° |
| 2026-04-24 22:03 | -3.74819 | -43.57953 | 15929 ft | 229 kts | 334° |
| 2026-04-24 22:03 | -3.73432 | -43.58747 | 15928 ft | 230 kts | 334° |
| 2026-04-24 22:04 | -3.72046 | -43.59540 | 15929 ft | 230 kts | 334° |
| 2026-04-24 22:04 | -3.70660 | -43.60334 | 15932 ft | 230 kts | 334° |
| 2026-04-24 22:04 | -3.69273 | -43.61127 | 15927 ft | 229 kts | 334° |
| 2026-04-24 22:04 | -3.67888 | -43.61920 | 15932 ft | 229 kts | 334° |
| 2026-04-24 22:05 | -3.66501 | -43.62714 | 15930 ft | 230 kts | 334° |
| 2026-04-24 22:05 | -3.65114 | -43.63508 | 15928 ft | 230 kts | 334° |
| 2026-04-24 22:05 | -3.63727 | -43.64300 | 15926 ft | 230 kts | 334° |
| 2026-04-24 22:05 | -3.62338 | -43.65089 | 15929 ft | 230 kts | 334° |
| 2026-04-24 22:06 | -3.60950 | -43.65880 | 15928 ft | 230 kts | 334° |
| 2026-04-24 22:06 | -3.59562 | -43.66670 | 15927 ft | 230 kts | 334° |
| 2026-04-24 22:06 | -3.58174 | -43.67461 | 15931 ft | 229 kts | 334° |
| 2026-04-24 22:06 | -3.56788 | -43.68250 | 15932 ft | 229 kts | 334° |
| 2026-04-24 22:07 | -3.55406 | -43.69038 | 15932 ft | 228 kts | 334° |
| 2026-04-24 22:07 | -3.54025 | -43.69824 | 15932 ft | 228 kts | 334° |
| 2026-04-24 22:07 | -3.52644 | -43.70609 | 15930 ft | 228 kts | 334° |
| 2026-04-24 22:07 | -3.51264 | -43.71396 | 15935 ft | 228 kts | 334° |
| 2026-04-24 22:08 | -3.49883 | -43.72182 | 15937 ft | 228 kts | 334° |
| 2026-04-24 22:08 | -3.48504 | -43.72967 | 15937 ft | 228 kts | 334° |
| 2026-04-24 22:08 | -3.47124 | -43.73753 | 15934 ft | 228 kts | 334° |
| 2026-04-24 22:08 | -3.45745 | -43.74538 | 15931 ft | 228 kts | 334° |
| 2026-04-24 22:09 | -3.44364 | -43.75324 | 15931 ft | 228 kts | 334° |
| 2026-04-24 22:09 | -3.43003 | -43.76099 | 15932 ft | 228 kts | 334° |
| 2026-04-24 22:09 | -3.41606 | -43.76894 | 15934 ft | 228 kts | 334° |
| 2026-04-24 22:09 | -3.40246 | -43.77668 | 15930 ft | 228 kts | 334° |
| 2026-04-24 22:10 | -3.38869 | -43.78452 | 15934 ft | 228 kts | 334° |
| 2026-04-24 22:10 | -3.37491 | -43.79236 | 15935 ft | 228 kts | 334° |
| 2026-04-24 22:10 | -3.36113 | -43.80021 | 15933 ft | 228 kts | 334° |
| 2026-04-24 22:10 | -3.34733 | -43.80806 | 15931 ft | 228 kts | 334° |
| 2026-04-24 22:11 | -3.33353 | -43.81592 | 15937 ft | 228 kts | 334° |
| 2026-04-24 22:11 | -3.31971 | -43.82378 | 15937 ft | 228 kts | 334° |
| 2026-04-24 22:11 | -3.30590 | -43.83164 | 15937 ft | 228 kts | 334° |
| 2026-04-24 22:11 | -3.29208 | -43.83951 | 15937 ft | 228 kts | 334° |
| 2026-04-24 22:12 | -3.27828 | -43.84736 | 15939 ft | 228 kts | 334° |
| 2026-04-24 22:12 | -3.26452 | -43.85518 | 15940 ft | 227 kts | 334° |
| 2026-04-24 22:12 | -3.25081 | -43.86299 | 15937 ft | 227 kts | 334° |
| 2026-04-24 22:12 | -3.23707 | -43.87081 | 15934 ft | 227 kts | 334° |
| 2026-04-24 22:13 | -3.22331 | -43.87863 | 15938 ft | 228 kts | 334° |
| 2026-04-24 22:13 | -3.20955 | -43.88646 | 15941 ft | 228 kts | 334° |
| 2026-04-24 22:13 | -3.19578 | -43.89430 | 15939 ft | 228 kts | 334° |
| 2026-04-24 22:13 | -3.18200 | -43.90214 | 15941 ft | 228 kts | 334° |
| 2026-04-24 22:14 | -3.16823 | -43.90998 | 15936 ft | 228 kts | 334° |
| 2026-04-24 22:14 | -3.15447 | -43.91785 | 15939 ft | 228 kts | 334° |
| 2026-04-24 22:14 | -3.14071 | -43.92574 | 15937 ft | 228 kts | 334° |
| 2026-04-24 22:14 | -3.12695 | -43.93360 | 15936 ft | 228 kts | 334° |
| 2026-04-24 22:15 | -3.11317 | -43.94146 | 15937 ft | 228 kts | 334° |
| 2026-04-24 22:15 | -3.09940 | -43.94934 | 15940 ft | 228 kts | 334° |
| 2026-04-24 22:15 | -3.08564 | -43.95720 | 15938 ft | 226 kts | 334° |
| 2026-04-24 22:15 | -3.07251 | -43.96470 | 15960 ft | 214 kts | 334° |
| 2026-04-24 22:16 | -3.05935 | -43.97219 | 15666 ft | 220 kts | 334° |
| 2026-04-24 22:16 | -3.04601 | -43.97981 | 15433 ft | 221 kts | 334° |
| 2026-04-24 22:16 | -3.03270 | -43.98743 | 15197 ft | 220 kts | 334° |
| 2026-04-24 22:16 | -3.01945 | -43.99501 | 14962 ft | 219 kts | 334° |
| 2026-04-24 22:17 | -3.00626 | -44.00256 | 14732 ft | 218 kts | 334° |
| 2026-04-24 22:17 | -2.99311 | -44.01006 | 14503 ft | 217 kts | 334° |
| 2026-04-24 22:17 | -2.98424 | -44.01513 | 14350 ft | 217 kts | 334° |
| 2026-04-24 22:17 | -2.97133 | -44.02251 | 14128 ft | 216 kts | 334° |
| 2026-04-24 22:18 | -2.95829 | -44.02997 | 13902 ft | 216 kts | 334° |
| 2026-04-24 22:18 | -2.94527 | -44.03742 | 13669 ft | 216 kts | 334° |
| 2026-04-24 22:18 | -2.93225 | -44.04485 | 13415 ft | 215 kts | 334° |
| 2026-04-24 22:18 | -2.91926 | -44.05227 | 13162 ft | 215 kts | 334° |
| 2026-04-24 22:19 | -2.90632 | -44.05967 | 12909 ft | 214 kts | 334° |
| 2026-04-24 22:19 | -2.89340 | -44.06705 | 12661 ft | 214 kts | 334° |
| 2026-04-24 22:19 | -2.88051 | -44.07441 | 12415 ft | 213 kts | 334° |
| 2026-04-24 22:19 | -2.86763 | -44.08177 | 12171 ft | 213 kts | 334° |
| 2026-04-24 22:20 | -2.85472 | -44.08911 | 11928 ft | 213 kts | 334° |
| 2026-04-24 22:20 | -2.84183 | -44.09639 | 11642 ft | 212 kts | 334° |
| 2026-04-24 22:20 | -2.82905 | -44.10362 | 11192 ft | 211 kts | 334° |
| 2026-04-24 22:20 | -2.81627 | -44.11089 | 10728 ft | 211 kts | 334° |
| 2026-04-24 22:21 | -2.80360 | -44.11810 | 10264 ft | 209 kts | 334° |
| 2026-04-24 22:21 | -2.79099 | -44.12528 | 9805 ft | 208 kts | 333° |
| 2026-04-24 22:21 | -2.77849 | -44.13238 | 9293 ft | 206 kts | 333° |
| 2026-04-24 22:21 | -2.76606 | -44.13944 | 8808 ft | 205 kts | 333° |
| 2026-04-24 22:22 | -2.75371 | -44.14647 | 8322 ft | 204 kts | 333° |
| 2026-04-24 22:22 | -2.74143 | -44.15345 | 7842 ft | 202 kts | 333° |
| 2026-04-24 22:22 | -2.72923 | -44.16038 | 7368 ft | 201 kts | 333° |
| 2026-04-24 22:22 | -2.71709 | -44.16728 | 6900 ft | 200 kts | 333° |
| 2026-04-24 22:23 | -2.70500 | -44.17415 | 6434 ft | 199 kts | 333° |
| 2026-04-24 22:23 | -2.69299 | -44.18098 | 5955 ft | 198 kts | 333° |
| 2026-04-24 22:23 | -2.68101 | -44.18779 | 5471 ft | 198 kts | 332° |
| 2026-04-24 22:23 | -2.66908 | -44.19458 | 4995 ft | 197 kts | 332° |
| 2026-04-24 22:24 | -2.65717 | -44.20132 | 4514 ft | 196 kts | 332° |
| 2026-04-24 22:24 | -2.64533 | -44.20805 | 4026 ft | 194 kts | 332° |
| 2026-04-24 22:24 | -2.63368 | -44.21472 | 3548 ft | 192 kts | 332° |
| 2026-04-24 22:24 | -2.62211 | -44.22127 | 3074 ft | 190 kts | 333° |
| 2026-04-24 22:25 | -2.61062 | -44.22775 | 2596 ft | 188 kts | 333° |
| 2026-04-24 22:25 | -2.59965 | -44.23393 | 2309 ft | 176 kts | 333° |
| 2026-04-24 22:25 | -2.58917 | -44.23985 | 2013 ft | 170 kts | 333° |
| 2026-04-24 22:25 | -2.57937 | -44.24548 | 1971 ft | 155 kts | 333° |
| 2026-04-24 22:26 | -2.57038 | -44.25073 | 1961 ft | 145 kts | 333° |
| 2026-04-24 22:26 | -2.56176 | -44.25585 | 1964 ft | 145 kts | 333° |
| 2026-04-24 22:26 | -2.55302 | -44.26109 | 1962 ft | 147 kts | 333° |
| 2026-04-24 22:26 | -2.54375 | -44.26491 | 1965 ft | 143 kts | 0° |
| 2026-04-24 22:27 | -2.53522 | -44.26098 | 1964 ft | 141 kts | 51° |
| 2026-04-24 22:27 | -2.53321 | -44.25159 | 1964 ft | 145 kts | 99° |
| 2026-04-24 22:27 | -2.53670 | -44.24213 | 1971 ft | 144 kts | 108° |
| 2026-04-24 22:27 | -2.54206 | -44.23352 | 1973 ft | 148 kts | 124° |
| 2026-04-24 22:28 | -2.54682 | -44.22476 | 1966 ft | 142 kts | 92° |
| 2026-04-24 22:28 | -2.54467 | -44.21546 | 1974 ft | 138 kts | 69° |
| 2026-04-24 22:28 | -2.54542 | -44.20592 | 1970 ft | 145 kts | 110° |
| 2026-04-24 22:28 | -2.55268 | -44.19885 | 1976 ft | 154 kts | 153° |
| 2026-04-24 22:29 | -2.57111 | -44.20646 | 1972 ft | 158 kts | 242° |
| 2026-04-24 22:29 | -2.57626 | -44.21614 | 1977 ft | 158 kts | 244° |
| 2026-04-24 22:29 | -2.58149 | -44.22581 | 1982 ft | 158 kts | 243° |
| 2026-04-24 22:30 | -2.58679 | -44.23545 | 1982 ft | 159 kts | 243° |
| 2026-04-24 22:30 | -2.59224 | -44.24533 | 1877 ft | 166 kts | 243° |
| 2026-04-24 22:30 | -2.59768 | -44.25519 | 1807 ft | 160 kts | 243° |
| 2026-04-24 22:30 | -2.60300 | -44.26478 | 1731 ft | 156 kts | 243° |
| 2026-04-24 22:31 | -2.60825 | -44.27426 | 1660 ft | 156 kts | 243° |
| 2026-04-24 22:31 | -2.61347 | -44.28370 | 1557 ft | 155 kts | 242° |
| 2026-04-24 22:31 | -2.61870 | -44.29314 | 1436 ft | 156 kts | 242° |
| 2026-04-24 22:31 | -2.62395 | -44.30260 | 1376 ft | 153 kts | 243° |
| 2026-04-24 22:32 | -2.62900 | -44.31171 | 1374 ft | 147 kts | 243° |
| 2026-04-24 22:32 | -2.63393 | -44.32061 | 1365 ft | 145 kts | 244° |
| 2026-04-24 22:32 | -2.63877 | -44.32935 | 1368 ft | 141 kts | 243° |
| 2026-04-24 22:32 | -2.64343 | -44.33777 | 1369 ft | 138 kts | 245° |
| 2026-04-24 22:33 | -2.64881 | -44.34592 | 1361 ft | 145 kts | 221° |
| 2026-04-24 22:33 | -2.65803 | -44.34875 | 1366 ft | 140 kts | 173° |
| 2026-04-24 22:33 | -2.66654 | -44.34487 | 1362 ft | 134 kts | 129° |
| 2026-04-24 22:33 | -2.67028 | -44.33685 | 1365 ft | 125 kts | 90° |
| 2026-04-24 22:34 | -2.66908 | -44.32850 | 1377 ft | 120 kts | 74° |
| 2026-04-24 22:34 | -2.66736 | -44.32025 | 1381 ft | 123 kts | 73° |
| 2026-04-24 22:34 | -2.66556 | -44.31178 | 1378 ft | 125 kts | 75° |
| 2026-04-24 22:34 | -2.66379 | -44.30344 | 1375 ft | 121 kts | 75° |
| 2026-04-24 22:35 | -2.66207 | -44.29528 | 1377 ft | 120 kts | 72° |
| 2026-04-24 22:35 | -2.65987 | -44.28726 | 1373 ft | 119 kts | 58° |
| 2026-04-24 22:35 | -2.65388 | -44.28177 | 1363 ft | 119 kts | 30° |
| 2026-04-24 22:35 | -2.64652 | -44.27790 | 1300 ft | 119 kts | 25° |
| 2026-04-24 22:36 | -2.63891 | -44.27454 | 1202 ft | 120 kts | 26° |
| 2026-04-24 22:36 | -2.63154 | -44.27051 | 1071 ft | 122 kts | 31° |
| 2026-04-24 22:36 | -2.62463 | -44.26593 | 965 ft | 118 kts | 36° |
| 2026-04-24 22:36 | -2.61815 | -44.26096 | 814 ft | 116 kts | 40° |
| 2026-04-24 22:37 | -2.61219 | -44.25585 | 623 ft | 109 kts | 40° |
| 2026-04-24 22:37 | -2.60625 | -44.25100 | 472 ft | 111 kts | 37° |
| 2026-04-24 22:37 | -2.60019 | -44.24612 | 320 ft | 109 kts | 39° |
| 2026-04-24 22:37 | -2.59445 | -44.24142 | 171 ft | 106 kts | 39° |
| 2026-04-24 22:38 | -2.58923 | -44.23720 | 157 ft | 84 kts | 39° |
| 2026-04-24 22:38 | -2.58564 | -44.23426 | 158 ft | 41 kts | 38° |
| 2026-04-24 22:38 | -2.58475 | -44.23387 | 157 ft | 6 kts | 263° |
| 2026-04-24 22:38 | -2.58450 | -44.23428 | 157 ft | 6 kts | 294° |
| 2026-04-24 22:39 | -2.58443 | -44.23461 | 157 ft | 5 kts | 257° |
| 2026-04-24 22:39 | -2.58418 | -44.23500 | 157 ft | 10 kts | 281° |
| 2026-04-24 22:39 | -2.58480 | -44.23574 | 158 ft | 19 kts | 237° |
| 2026-04-24 22:39 | -2.58522 | -44.23684 | 158 ft | 20 kts | 249° |
| 2026-04-24 22:40 | -2.58568 | -44.23812 | 158 ft | 17 kts | 250° |
| 2026-04-24 22:40 | -2.58608 | -44.23931 | 159 ft | 11 kts | 285° |
| 2026-04-24 22:40 | -2.58510 | -44.23960 | 159 ft | 14 kts | 347° |
| 2026-04-24 22:40 | -2.58478 | -44.23972 | 159 ft | 1 kts | 247° |